Terminal Aerodrome Forecast
Issued by NWS

Home | Current Version | Previous Version | Text Only | Print | Product List | Glossary On
Versions: 1 2 3 4 5 6 7 8 9 10 11 12 13 14 15 16 17 18
000
FTUS42 KFFC 260533
TAFRYY
TAF
KRYY 260533Z 2606/2706 13005KT 3SM BR OVC007
     FM260800 14004KT 3SM BR OVC006
     FM261500 15006KT P6SM OVC012
     FM261700 16007KT P6SM -SHRA OVC025
      TEMPO 2620/2624 3SM TSRA BR OVC015CB
     FM270000 15006KT P6SM SCT030 BKN045
      AMD NOT SKED TIL 261200=

USA.gov is the U.S. government's official web portal to all federal, state and local government web resources and services.